sensor_id;sensor_type;location;lat;lon;timestamp;P1;durP1;ratioP1;P2;durP2;ratioP2
35074;SDS011;21260;34.984;32.490;2022-12-20T00:01:24;10.57;;;8.20;;
35074;SDS011;21260;34.984;32.490;2022-12-20T00:03:54;10.53;;;8.43;;
35074;SDS011;21260;34.984;32.490;2022-12-20T00:06:23;10.30;;;8.30;;
35074;SDS011;21260;34.984;32.490;2022-12-20T00:08:54;9.83;;;8.40;;
35074;SDS011;21260;34.984;32.490;2022-12-20T00:11:24;13.20;;;7.63;;
35074;SDS011;21260;34.984;32.490;2022-12-20T00:13:52;12.20;;;6.93;;
35074;SDS011;21260;34.984;32.490;2022-12-20T00:16:20;9.57;;;6.97;;
35074;SDS011;21260;34.984;32.490;2022-12-20T00:18:51;8.40;;;6.33;;
35074;SDS011;21260;34.984;32.490;2022-12-20T00:21:24;8.27;;;6.57;;
35074;SDS011;21260;34.984;32.490;2022-12-20T00:23:52;11.53;;;6.63;;
35074;SDS011;21260;34.984;32.490;2022-12-20T00:26:20;7.97;;;6.30;;
35074;SDS011;21260;34.984;32.490;2022-12-20T00:28:50;6.87;;;6.00;;
35074;SDS011;21260;34.984;32.490;2022-12-20T00:31:18;7.17;;;5.50;;
35074;SDS011;21260;34.984;32.490;2022-12-20T00:33:48;8.80;;;5.87;;
35074;SDS011;21260;34.984;32.490;2022-12-20T00:36:17;8.83;;;6.80;;
35074;SDS011;21260;34.984;32.490;2022-12-20T00:38:45;7.47;;;5.63;;
35074;SDS011;21260;34.984;32.490;2022-12-20T00:41:19;12.67;;;6.77;;
35074;SDS011;21260;34.984;32.490;2022-12-20T00:43:49;10.00;;;6.33;;
35074;SDS011;21260;34.984;32.490;2022-12-20T00:46:16;6.57;;;5.70;;
35074;SDS011;21260;34.984;32.490;2022-12-20T00:48:44;8.47;;;5.90;;
35074;SDS011;21260;34.984;32.490;2022-12-20T00:51:12;8.93;;;5.97;;
35074;SDS011;21260;34.984;32.490;2022-12-20T00:53:45;8.17;;;6.20;;
35074;SDS011;21260;34.984;32.490;2022-12-20T00:56:12;8.13;;;6.63;;
35074;SDS011;21260;34.984;32.490;2022-12-20T00:58:39;7.17;;;6.47;;
35074;SDS011;21260;34.984;32.490;2022-12-20T01:01:15;7.20;;;6.10;;
35074;SDS011;21260;34.984;32.490;2022-12-20T01:03:46;8.70;;;5.93;;
35074;SDS011;21260;34.984;32.490;2022-12-20T01:06:13;9.87;;;6.30;;
35074;SDS011;21260;34.984;32.490;2022-12-20T01:08:39;9.37;;;5.93;;
35074;SDS011;21260;34.984;32.490;2022-12-20T01:11:13;8.70;;;5.97;;
35074;SDS011;21260;34.984;32.490;2022-12-20T01:13:55;8.27;;;6.37;;
35074;SDS011;21260;34.984;32.490;2022-12-20T01:16:28;7.67;;;6.17;;
35074;SDS011;21260;34.984;32.490;2022-12-20T01:19:02;8.00;;;6.13;;
35074;SDS011;21260;34.984;32.490;2022-12-20T01:21:31;8.57;;;5.83;;
35074;SDS011;21260;34.984;32.490;2022-12-20T01:23:58;8.50;;;5.80;;
35074;SDS011;21260;34.984;32.490;2022-12-20T01:26:26;8.23;;;6.40;;
35074;SDS011;21260;34.984;32.490;2022-12-20T01:28:55;7.73;;;6.33;;
35074;SDS011;21260;34.984;32.490;2022-12-20T01:31:24;9.50;;;6.10;;
35074;SDS011;21260;34.984;32.490;2022-12-20T01:33:52;7.30;;;6.03;;
35074;SDS011;21260;34.984;32.490;2022-12-20T01:36:20;8.97;;;6.57;;
35074;SDS011;21260;34.984;32.490;2022-12-20T01:38:49;9.77;;;6.67;;
35074;SDS011;21260;34.984;32.490;2022-12-20T01:41:28;9.83;;;6.57;;
35074;SDS011;21260;34.984;32.490;2022-12-20T01:43:58;9.30;;;7.00;;
35074;SDS011;21260;34.984;32.490;2022-12-20T01:46:31;8.37;;;6.60;;
35074;SDS011;21260;34.984;32.490;2022-12-20T01:51:33;9.20;;;7.00;;
35074;SDS011;21260;34.984;32.490;2022-12-20T01:54:09;10.97;;;6.70;;
35074;SDS011;21260;34.984;32.490;2022-12-20T01:56:54;8.43;;;7.53;;
35074;SDS011;21260;34.984;32.490;2022-12-20T01:59:26;10.97;;;7.40;;
35074;SDS011;21260;34.984;32.490;2022-12-20T02:01:57;9.63;;;7.07;;
35074;SDS011;21260;34.984;32.490;2022-12-20T02:04:27;10.07;;;7.70;;
35074;SDS011;21260;34.984;32.490;2022-12-20T02:06:53;10.97;;;8.07;;
35074;SDS011;21260;34.984;32.490;2022-12-20T02:09:22;8.63;;;7.20;;
35074;SDS011;21260;34.984;32.490;2022-12-20T02:23:14;7.40;;;6.60;;
35074;SDS011;21260;34.984;32.490;2022-12-20T02:32:15;6.30;;;4.93;;
35074;SDS011;21260;34.984;32.490;2022-12-20T02:34:55;5.80;;;5.17;;
35074;SDS011;21260;34.984;32.490;2022-12-20T02:37:21;8.50;;;5.30;;
35074;SDS011;21260;34.984;32.490;2022-12-20T02:39:48;7.63;;;5.73;;
35074;SDS011;21260;34.984;32.490;2022-12-20T02:42:16;9.40;;;5.47;;
35074;SDS011;21260;34.984;32.490;2022-12-20T02:44:52;8.87;;;5.30;;
35074;SDS011;21260;34.984;32.490;2022-12-20T02:50:43;6.40;;;5.23;;
35074;SDS011;21260;34.984;32.490;2022-12-20T02:53:15;6.23;;;5.20;;
35074;SDS011;21260;34.984;32.490;2022-12-20T02:55:50;7.13;;;4.60;;
35074;SDS011;21260;34.984;32.490;2022-12-20T02:58:41;7.23;;;4.90;;
35074;SDS011;21260;34.984;32.490;2022-12-20T03:01:53;8.90;;;4.73;;
35074;SDS011;21260;34.984;32.490;2022-12-20T03:04:25;6.03;;;4.73;;
35074;SDS011;21260;34.984;32.490;2022-12-20T03:07:03;7.10;;;5.07;;
35074;SDS011;21260;34.984;32.490;2022-12-20T03:09:34;5.93;;;4.90;;
35074;SDS011;21260;34.984;32.490;2022-12-20T03:12:05;6.60;;;4.40;;
35074;SDS011;21260;34.984;32.490;2022-12-20T03:14:33;5.87;;;4.80;;
35074;SDS011;21260;34.984;32.490;2022-12-20T03:17:00;6.77;;;4.47;;
35074;SDS011;21260;34.984;32.490;2022-12-20T03:19:27;5.20;;;4.30;;
35074;SDS011;21260;34.984;32.490;2022-12-20T03:21:54;4.73;;;3.77;;
35074;SDS011;21260;34.984;32.490;2022-12-20T03:24:21;5.53;;;3.87;;
35074;SDS011;21260;34.984;32.490;2022-12-20T03:26:49;4.33;;;3.50;;
35074;SDS011;21260;34.984;32.490;2022-12-20T03:29:15;5.40;;;3.77;;
35074;SDS011;21260;34.984;32.490;2022-12-20T03:31:41;6.33;;;3.90;;
35074;SDS011;21260;34.984;32.490;2022-12-20T03:34:09;5.63;;;3.80;;
35074;SDS011;21260;34.984;32.490;2022-12-20T03:36:36;10.43;;;3.90;;
35074;SDS011;21260;34.984;32.490;2022-12-20T03:39:02;6.60;;;3.90;;
35074;SDS011;21260;34.984;32.490;2022-12-20T03:41:29;5.07;;;3.63;;
35074;SDS011;21260;34.984;32.490;2022-12-20T03:43:55;7.83;;;3.43;;
35074;SDS011;21260;34.984;32.490;2022-12-20T03:46:22;5.53;;;3.20;;
35074;SDS011;21260;34.984;32.490;2022-12-20T03:48:49;8.10;;;3.77;;
35074;SDS011;21260;34.984;32.490;2022-12-20T03:51:16;5.03;;;3.77;;
35074;SDS011;21260;34.984;32.490;2022-12-20T03:53:42;5.27;;;3.53;;
35074;SDS011;21260;34.984;32.490;2022-12-20T03:56:08;7.43;;;3.67;;
35074;SDS011;21260;34.984;32.490;2022-12-20T03:58:35;8.47;;;3.60;;
35074;SDS011;21260;34.984;32.490;2022-12-20T04:01:01;6.47;;;3.50;;
35074;SDS011;21260;34.984;32.490;2022-12-20T04:03:40;4.77;;;3.73;;
35074;SDS011;21260;34.984;32.490;2022-12-20T04:06:06;6.57;;;3.50;;
35074;SDS011;21260;34.984;32.490;2022-12-20T04:08:32;4.10;;;3.50;;
35074;SDS011;21260;34.984;32.490;2022-12-20T04:13:42;5.93;;;4.13;;
35074;SDS011;21260;34.984;32.490;2022-12-20T04:16:14;6.83;;;3.40;;
35074;SDS011;21260;34.984;32.490;2022-12-20T04:18:44;7.13;;;3.97;;
35074;SDS011;21260;34.984;32.490;2022-12-20T04:21:12;7.90;;;4.00;;
35074;SDS011;21260;34.984;32.490;2022-12-20T04:23:40;6.77;;;3.87;;
35074;SDS011;21260;34.984;32.490;2022-12-20T04:26:08;4.73;;;3.43;;
35074;SDS011;21260;34.984;32.490;2022-12-20T04:28:37;6.50;;;3.97;;
35074;SDS011;21260;34.984;32.490;2022-12-20T04:31:04;12.07;;;4.00;;
35074;SDS011;21260;34.984;32.490;2022-12-20T04:33:31;5.50;;;4.50;;
35074;SDS011;21260;34.984;32.490;2022-12-20T04:35:58;7.33;;;4.33;;
35074;SDS011;21260;34.984;32.490;2022-12-20T04:38:25;6.57;;;4.00;;
35074;SDS011;21260;34.984;32.490;2022-12-20T04:40:52;7.50;;;4.47;;
35074;SDS011;21260;34.984;32.490;2022-12-20T04:43:21;10.33;;;4.40;;
35074;SDS011;21260;34.984;32.490;2022-12-20T04:45:50;9.17;;;4.83;;
35074;SDS011;21260;34.984;32.490;2022-12-20T04:48:20;7.80;;;4.90;;
35074;SDS011;21260;34.984;32.490;2022-12-20T04:50:51;7.63;;;4.40;;
35074;SDS011;21260;34.984;32.490;2022-12-20T04:53:20;6.07;;;4.50;;
35074;SDS011;21260;34.984;32.490;2022-12-20T04:56:05;6.67;;;5.20;;
35074;SDS011;21260;34.984;32.490;2022-12-20T04:58:32;5.87;;;4.77;;
35074;SDS011;21260;34.984;32.490;2022-12-20T05:00:59;8.97;;;5.50;;
35074;SDS011;21260;34.984;32.490;2022-12-20T05:03:25;7.27;;;5.20;;
35074;SDS011;21260;34.984;32.490;2022-12-20T05:05:53;7.30;;;5.00;;
35074;SDS011;21260;34.984;32.490;2022-12-20T05:08:20;7.87;;;5.70;;
35074;SDS011;21260;34.984;32.490;2022-12-20T05:10:47;8.87;;;5.10;;
35074;SDS011;21260;34.984;32.490;2022-12-20T05:13:13;9.10;;;5.40;;
35074;SDS011;21260;34.984;32.490;2022-12-20T05:15:40;7.93;;;5.53;;
35074;SDS011;21260;34.984;32.490;2022-12-20T05:18:07;7.97;;;5.53;;
35074;SDS011;21260;34.984;32.490;2022-12-20T05:20:34;9.20;;;5.67;;
35074;SDS011;21260;34.984;32.490;2022-12-20T05:23:01;9.13;;;5.47;;
35074;SDS011;21260;34.984;32.490;2022-12-20T05:25:47;7.33;;;5.93;;
35074;SDS011;21260;34.984;32.490;2022-12-20T05:28:33;6.57;;;5.13;;
35074;SDS011;21260;34.984;32.490;2022-12-20T05:31:02;8.20;;;5.50;;
35074;SDS011;21260;34.984;32.490;2022-12-20T05:33:28;12.07;;;6.57;;
35074;SDS011;21260;34.984;32.490;2022-12-20T05:35:55;8.10;;;5.90;;
35074;SDS011;21260;34.984;32.490;2022-12-20T05:38:22;7.53;;;6.20;;
35074;SDS011;21260;34.984;32.490;2022-12-20T05:40:49;10.27;;;7.50;;
35074;SDS011;21260;34.984;32.490;2022-12-20T05:43:16;9.27;;;7.00;;
35074;SDS011;21260;34.984;32.490;2022-12-20T05:45:47;10.73;;;6.87;;
35074;SDS011;21260;34.984;32.490;2022-12-20T05:48:17;8.70;;;7.77;;
35074;SDS011;21260;34.984;32.490;2022-12-20T05:50:47;12.67;;;8.50;;
35074;SDS011;21260;34.984;32.490;2022-12-20T05:53:14;15.43;;;11.00;;
35074;SDS011;21260;34.984;32.490;2022-12-20T05:55:43;18.33;;;10.90;;
35074;SDS011;21260;34.984;32.490;2022-12-20T05:58:13;12.47;;;10.97;;
35074;SDS011;21260;34.984;32.490;2022-12-20T06:00:40;13.97;;;11.63;;
35074;SDS011;21260;34.984;32.490;2022-12-20T06:03:08;16.47;;;12.13;;
35074;SDS011;21260;34.984;32.490;2022-12-20T06:05:42;16.33;;;12.83;;
35074;SDS011;21260;34.984;32.490;2022-12-20T06:08:10;18.00;;;12.37;;
35074;SDS011;21260;34.984;32.490;2022-12-20T06:10:37;14.23;;;11.70;;
35074;SDS011;21260;34.984;32.490;2022-12-20T06:13:06;17.30;;;11.90;;
35074;SDS011;21260;34.984;32.490;2022-12-20T06:15:34;16.53;;;12.10;;
35074;SDS011;21260;34.984;32.490;2022-12-20T06:18:02;18.87;;;13.33;;
35074;SDS011;21260;34.984;32.490;2022-12-20T06:20:30;15.90;;;12.57;;
35074;SDS011;21260;34.984;32.490;2022-12-20T06:22:58;15.03;;;12.83;;
35074;SDS011;21260;34.984;32.490;2022-12-20T06:25:25;17.87;;;13.73;;
35074;SDS011;21260;34.984;32.490;2022-12-20T06:27:52;16.50;;;14.20;;
35074;SDS011;21260;34.984;32.490;2022-12-20T06:30:19;18.90;;;13.73;;
35074;SDS011;21260;34.984;32.490;2022-12-20T06:32:46;17.00;;;13.43;;
35074;SDS011;21260;34.984;32.490;2022-12-20T06:35:13;15.67;;;13.07;;
35074;SDS011;21260;34.984;32.490;2022-12-20T06:37:40;17.20;;;14.17;;
35074;SDS011;21260;34.984;32.490;2022-12-20T06:40:10;19.57;;;15.00;;
35074;SDS011;21260;34.984;32.490;2022-12-20T06:42:38;15.70;;;14.00;;
35074;SDS011;21260;34.984;32.490;2022-12-20T06:45:07;16.17;;;13.70;;
35074;SDS011;21260;34.984;32.490;2022-12-20T06:47:34;19.43;;;13.30;;
35074;SDS011;21260;34.984;32.490;2022-12-20T06:50:01;16.73;;;13.17;;
35074;SDS011;21260;34.984;32.490;2022-12-20T06:52:31;16.60;;;13.50;;
35074;SDS011;21260;34.984;32.490;2022-12-20T06:54:57;17.90;;;14.10;;
35074;SDS011;21260;34.984;32.490;2022-12-20T06:57:24;19.30;;;14.47;;
35074;SDS011;21260;34.984;32.490;2022-12-20T06:59:50;16.33;;;13.77;;
35074;SDS011;21260;34.984;32.490;2022-12-20T07:02:17;16.90;;;13.40;;
35074;SDS011;21260;34.984;32.490;2022-12-20T07:04:44;14.77;;;13.17;;
35074;SDS011;21260;34.984;32.490;2022-12-20T07:07:12;18.77;;;13.97;;
35074;SDS011;21260;34.984;32.490;2022-12-20T07:09:38;20.60;;;13.97;;
35074;SDS011;21260;34.984;32.490;2022-12-20T07:12:07;15.90;;;12.10;;
35074;SDS011;21260;34.984;32.490;2022-12-20T07:14:34;20.23;;;13.43;;
35074;SDS011;21260;34.984;32.490;2022-12-20T07:17:01;20.20;;;13.50;;
35074;SDS011;21260;34.984;32.490;2022-12-20T07:19:28;17.87;;;13.07;;
35074;SDS011;21260;34.984;32.490;2022-12-20T07:21:55;20.17;;;13.07;;
35074;SDS011;21260;34.984;32.490;2022-12-20T07:24:22;16.80;;;12.73;;
35074;SDS011;21260;34.984;32.490;2022-12-20T07:26:48;14.20;;;11.80;;
35074;SDS011;21260;34.984;32.490;2022-12-20T07:29:17;16.33;;;12.47;;
35074;SDS011;21260;34.984;32.490;2022-12-20T07:31:44;16.93;;;12.00;;
35074;SDS011;21260;34.984;32.490;2022-12-20T07:34:10;16.83;;;13.07;;
35074;SDS011;21260;34.984;32.490;2022-12-20T07:36:36;16.33;;;12.13;;
35074;SDS011;21260;34.984;32.490;2022-12-20T07:39:03;16.90;;;12.67;;
35074;SDS011;21260;34.984;32.490;2022-12-20T07:41:30;16.90;;;12.43;;
35074;SDS011;21260;34.984;32.490;2022-12-20T07:43:57;15.90;;;11.93;;
35074;SDS011;21260;34.984;32.490;2022-12-20T07:46:24;14.90;;;12.27;;
35074;SDS011;21260;34.984;32.490;2022-12-20T07:48:51;14.73;;;11.60;;
35074;SDS011;21260;34.984;32.490;2022-12-20T07:51:26;15.23;;;12.13;;
35074;SDS011;21260;34.984;32.490;2022-12-20T07:54:04;14.63;;;11.50;;
35074;SDS011;21260;34.984;32.490;2022-12-20T07:56:37;15.83;;;12.23;;
35074;SDS011;21260;34.984;32.490;2022-12-20T07:59:11;16.63;;;12.13;;
35074;SDS011;21260;34.984;32.490;2022-12-20T08:01:42;12.83;;;11.17;;
35074;SDS011;21260;34.984;32.490;2022-12-20T08:04:13;21.27;;;12.97;;
35074;SDS011;21260;34.984;32.490;2022-12-20T08:06:49;14.60;;;11.53;;
35074;SDS011;21260;34.984;32.490;2022-12-20T08:09:21;15.47;;;12.33;;
35074;SDS011;21260;34.984;32.490;2022-12-20T08:11:53;17.57;;;11.87;;
35074;SDS011;21260;34.984;32.490;2022-12-20T08:14:20;16.37;;;12.20;;
35074;SDS011;21260;34.984;32.490;2022-12-20T08:16:47;13.30;;;11.53;;
35074;SDS011;21260;34.984;32.490;2022-12-20T08:19:13;13.73;;;11.47;;
35074;SDS011;21260;34.984;32.490;2022-12-20T08:21:40;15.03;;;11.87;;
35074;SDS011;21260;34.984;32.490;2022-12-20T08:24:07;18.60;;;12.90;;
35074;SDS011;21260;34.984;32.490;2022-12-20T08:26:39;15.67;;;12.83;;
35074;SDS011;21260;34.984;32.490;2022-12-20T08:29:08;13.97;;;11.67;;
35074;SDS011;21260;34.984;32.490;2022-12-20T08:31:38;14.90;;;11.70;;
35074;SDS011;21260;34.984;32.490;2022-12-20T08:34:08;14.17;;;12.13;;
35074;SDS011;21260;34.984;32.490;2022-12-20T08:36:36;14.20;;;11.13;;
35074;SDS011;21260;34.984;32.490;2022-12-20T08:39:04;14.70;;;11.10;;
35074;SDS011;21260;34.984;32.490;2022-12-20T08:41:33;15.77;;;11.33;;
35074;SDS011;21260;34.984;32.490;2022-12-20T08:44:02;18.37;;;11.57;;
35074;SDS011;21260;34.984;32.490;2022-12-20T08:46:29;15.37;;;11.43;;
35074;SDS011;21260;34.984;32.490;2022-12-20T08:48:55;18.83;;;11.97;;
35074;SDS011;21260;34.984;32.490;2022-12-20T08:51:22;14.83;;;11.33;;
35074;SDS011;21260;34.984;32.490;2022-12-20T08:53:48;15.27;;;11.20;;
35074;SDS011;21260;34.984;32.490;2022-12-20T08:56:15;14.50;;;11.80;;
35074;SDS011;21260;34.984;32.490;2022-12-20T08:58:43;15.53;;;12.37;;
35074;SDS011;21260;34.984;32.490;2022-12-20T09:01:12;14.63;;;11.77;;
35074;SDS011;21260;34.984;32.490;2022-12-20T09:03:45;18.90;;;12.70;;
35074;SDS011;21260;34.984;32.490;2022-12-20T09:06:17;15.43;;;11.87;;
35074;SDS011;21260;34.984;32.490;2022-12-20T09:08:46;17.27;;;11.87;;
35074;SDS011;21260;34.984;32.490;2022-12-20T09:13:46;15.60;;;11.47;;
35074;SDS011;21260;34.984;32.490;2022-12-20T09:16:15;15.10;;;11.57;;
35074;SDS011;21260;34.984;32.490;2022-12-20T09:21:21;13.77;;;10.47;;
35074;SDS011;21260;34.984;32.490;2022-12-20T09:23:49;14.83;;;10.93;;
35074;SDS011;21260;34.984;32.490;2022-12-20T09:26:17;12.97;;;9.87;;
35074;SDS011;21260;34.984;32.490;2022-12-20T09:28:45;11.47;;;9.77;;
35074;SDS011;21260;34.984;32.490;2022-12-20T09:31:16;12.37;;;9.43;;
35074;SDS011;21260;34.984;32.490;2022-12-20T09:33:45;14.10;;;9.50;;
35074;SDS011;21260;34.984;32.490;2022-12-20T09:36:12;13.00;;;10.53;;
35074;SDS011;21260;34.984;32.490;2022-12-20T09:38:45;16.07;;;11.53;;
35074;SDS011;21260;34.984;32.490;2022-12-20T09:44:13;14.20;;;10.83;;
35074;SDS011;21260;34.984;32.490;2022-12-20T09:47:00;13.67;;;11.23;;
35074;SDS011;21260;34.984;32.490;2022-12-20T09:49:35;17.07;;;11.17;;
35074;SDS011;21260;34.984;32.490;2022-12-20T10:00:45;15.53;;;9.47;;
35074;SDS011;21260;34.984;32.490;2022-12-20T10:03:21;12.77;;;10.27;;
35074;SDS011;21260;34.984;32.490;2022-12-20T10:05:55;14.27;;;9.97;;
35074;SDS011;21260;34.984;32.490;2022-12-20T10:11:31;15.37;;;9.70;;
35074;SDS011;21260;34.984;32.490;2022-12-20T10:23:11;16.77;;;10.80;;
35074;SDS011;21260;34.984;32.490;2022-12-20T10:25:51;15.90;;;10.27;;
35074;SDS011;21260;34.984;32.490;2022-12-20T10:28:27;14.30;;;10.50;;
35074;SDS011;21260;34.984;32.490;2022-12-20T10:31:02;14.27;;;10.20;;
35074;SDS011;21260;34.984;32.490;2022-12-20T10:33:36;11.40;;;10.20;;
35074;SDS011;21260;34.984;32.490;2022-12-20T10:39:06;12.63;;;10.47;;
35074;SDS011;21260;34.984;32.490;2022-12-20T10:44:18;12.80;;;10.53;;
35074;SDS011;21260;34.984;32.490;2022-12-20T10:46:48;12.93;;;10.47;;
35074;SDS011;21260;34.984;32.490;2022-12-20T10:49:28;12.23;;;9.27;;
35074;SDS011;21260;34.984;32.490;2022-12-20T10:54:35;16.47;;;10.13;;
35074;SDS011;21260;34.984;32.490;2022-12-20T10:57:15;17.17;;;10.20;;
35074;SDS011;21260;34.984;32.490;2022-12-20T10:59:51;11.63;;;9.33;;
35074;SDS011;21260;34.984;32.490;2022-12-20T11:02:26;15.57;;;9.77;;
35074;SDS011;21260;34.984;32.490;2022-12-20T11:07:53;13.67;;;9.07;;
35074;SDS011;21260;34.984;32.490;2022-12-20T11:10:40;12.97;;;8.83;;
35074;SDS011;21260;34.984;32.490;2022-12-20T11:13:25;12.63;;;8.63;;
35074;SDS011;21260;34.984;32.490;2022-12-20T11:15:54;12.27;;;8.53;;
35074;SDS011;21260;34.984;32.490;2022-12-20T11:18:32;12.83;;;8.70;;
35074;SDS011;21260;34.984;32.490;2022-12-20T11:23:59;10.83;;;9.10;;
35074;SDS011;21260;34.984;32.490;2022-12-20T11:38:11;11.67;;;8.87;;
35074;SDS011;21260;34.984;32.490;2022-12-20T11:50:16;17.57;;;9.63;;
35074;SDS011;21260;34.984;32.490;2022-12-20T11:53:24;11.67;;;9.10;;
35074;SDS011;21260;34.984;32.490;2022-12-20T11:56:15;11.00;;;9.80;;
35074;SDS011;21260;34.984;32.490;2022-12-20T11:58:50;13.50;;;9.80;;
35074;SDS011;21260;34.984;32.490;2022-12-20T12:01:33;12.53;;;8.93;;
35074;SDS011;21260;34.984;32.490;2022-12-20T12:07:08;12.40;;;8.67;;
35074;SDS011;21260;34.984;32.490;2022-12-20T12:09:56;15.60;;;9.67;;
35074;SDS011;21260;34.984;32.490;2022-12-20T12:15:39;13.13;;;9.50;;
35074;SDS011;21260;34.984;32.490;2022-12-20T12:18:28;16.17;;;9.77;;
35074;SDS011;21260;34.984;32.490;2022-12-20T12:24:00;12.53;;;9.10;;
35074;SDS011;21260;34.984;32.490;2022-12-20T12:26:45;14.47;;;9.00;;
35074;SDS011;21260;34.984;32.490;2022-12-20T12:29:12;11.53;;;8.40;;
35074;SDS011;21260;34.984;32.490;2022-12-20T12:31:59;10.60;;;8.50;;
35074;SDS011;21260;34.984;32.490;2022-12-20T12:38:02;12.00;;;8.93;;
35074;SDS011;21260;34.984;32.490;2022-12-20T12:41:11;14.30;;;8.80;;
35074;SDS011;21260;34.984;32.490;2022-12-20T12:43:58;16.13;;;9.13;;
35074;SDS011;21260;34.984;32.490;2022-12-20T12:46:43;12.17;;;8.03;;
35074;SDS011;21260;34.984;32.490;2022-12-20T12:49:19;9.53;;;8.07;;
35074;SDS011;21260;34.984;32.490;2022-12-20T12:51:55;16.77;;;8.33;;
35074;SDS011;21260;34.984;32.490;2022-12-20T12:54:36;12.70;;;8.43;;
35074;SDS011;21260;34.984;32.490;2022-12-20T12:57:12;10.27;;;7.93;;
35074;SDS011;21260;34.984;32.490;2022-12-20T13:04:56;10.17;;;7.23;;
35074;SDS011;21260;34.984;32.490;2022-12-20T13:09:58;10.00;;;7.07;;
35074;SDS011;21260;34.984;32.490;2022-12-20T13:17:52;9.00;;;7.67;;
35074;SDS011;21260;34.984;32.490;2022-12-20T13:20:41;10.30;;;7.10;;
35074;SDS011;21260;34.984;32.490;2022-12-20T13:23:47;12.77;;;8.07;;
35074;SDS011;21260;34.984;32.490;2022-12-20T13:35:27;10.10;;;7.87;;
35074;SDS011;21260;34.984;32.490;2022-12-20T13:40:47;12.10;;;7.10;;
35074;SDS011;21260;34.984;32.490;2022-12-20T13:43:27;10.03;;;7.30;;
35074;SDS011;21260;34.984;32.490;2022-12-20T13:48:38;8.20;;;6.93;;
35074;SDS011;21260;34.984;32.490;2022-12-20T13:51:30;11.73;;;7.43;;
35074;SDS011;21260;34.984;32.490;2022-12-20T13:54:03;10.67;;;7.70;;
35074;SDS011;21260;34.984;32.490;2022-12-20T13:59:14;8.27;;;7.17;;
35074;SDS011;21260;34.984;32.490;2022-12-20T14:02:00;8.80;;;7.00;;
35074;SDS011;21260;34.984;32.490;2022-12-20T14:04:39;9.00;;;7.20;;
35074;SDS011;21260;34.984;32.490;2022-12-20T14:07:13;10.27;;;7.07;;
35074;SDS011;21260;34.984;32.490;2022-12-20T14:09:43;11.10;;;6.73;;
35074;SDS011;21260;34.984;32.490;2022-12-20T14:12:19;7.77;;;6.67;;
35074;SDS011;21260;34.984;32.490;2022-12-20T14:14:48;11.23;;;6.87;;
35074;SDS011;21260;34.984;32.490;2022-12-20T14:17:26;13.90;;;6.97;;
35074;SDS011;21260;34.984;32.490;2022-12-20T14:20:11;17.90;;;8.17;;
35074;SDS011;21260;34.984;32.490;2022-12-20T14:22:48;16.73;;;7.50;;
35074;SDS011;21260;34.984;32.490;2022-12-20T14:25:36;9.63;;;7.03;;
35074;SDS011;21260;34.984;32.490;2022-12-20T14:28:28;9.33;;;6.67;;
35074;SDS011;21260;34.984;32.490;2022-12-20T14:31:03;13.60;;;7.53;;
35074;SDS011;21260;34.984;32.490;2022-12-20T14:33:34;9.70;;;7.93;;
35074;SDS011;21260;34.984;32.490;2022-12-20T14:36:15;12.20;;;8.07;;
35074;SDS011;21260;34.984;32.490;2022-12-20T14:38:54;9.90;;;7.43;;
35074;SDS011;21260;34.984;32.490;2022-12-20T14:41:28;10.83;;;7.50;;
35074;SDS011;21260;34.984;32.490;2022-12-20T14:44:12;12.13;;;7.80;;
35074;SDS011;21260;34.984;32.490;2022-12-20T14:46:49;12.37;;;7.67;;
35074;SDS011;21260;34.984;32.490;2022-12-20T14:54:43;10.40;;;7.23;;
35074;SDS011;21260;34.984;32.490;2022-12-20T14:57:30;11.13;;;6.80;;
35074;SDS011;21260;34.984;32.490;2022-12-20T15:02:51;8.10;;;6.70;;
35074;SDS011;21260;34.984;32.490;2022-12-20T15:13:32;12.77;;;7.23;;
35074;SDS011;21260;34.984;32.490;2022-12-20T15:16:11;10.90;;;6.80;;
35074;SDS011;21260;34.984;32.490;2022-12-20T15:18:57;8.20;;;7.17;;
35074;SDS011;21260;34.984;32.490;2022-12-20T15:21:30;12.87;;;7.70;;
35074;SDS011;21260;34.984;32.490;2022-12-20T15:24:22;11.60;;;6.80;;
35074;SDS011;21260;34.984;32.490;2022-12-20T15:26:54;10.10;;;6.67;;
35074;SDS011;21260;34.984;32.490;2022-12-20T15:29:21;7.83;;;6.93;;
35074;SDS011;21260;34.984;32.490;2022-12-20T15:31:58;12.00;;;7.43;;
35074;SDS011;21260;34.984;32.490;2022-12-20T15:35:04;11.40;;;7.37;;
35074;SDS011;21260;34.984;32.490;2022-12-20T15:37:36;8.00;;;7.10;;
35074;SDS011;21260;34.984;32.490;2022-12-20T15:40:02;9.93;;;7.10;;
35074;SDS011;21260;34.984;32.490;2022-12-20T15:42:29;8.93;;;7.10;;
35074;SDS011;21260;34.984;32.490;2022-12-20T15:44:56;9.17;;;7.13;;
35074;SDS011;21260;34.984;32.490;2022-12-20T15:47:29;10.43;;;7.07;;
35074;SDS011;21260;34.984;32.490;2022-12-20T15:49:55;9.50;;;7.43;;
35074;SDS011;21260;34.984;32.490;2022-12-20T15:52:22;13.40;;;7.47;;
35074;SDS011;21260;34.984;32.490;2022-12-20T15:54:49;13.53;;;8.37;;
35074;SDS011;21260;34.984;32.490;2022-12-20T15:57:15;10.97;;;8.17;;
35074;SDS011;21260;34.984;32.490;2022-12-20T15:59:43;11.07;;;7.93;;
35074;SDS011;21260;34.984;32.490;2022-12-20T16:02:18;11.37;;;7.53;;
35074;SDS011;21260;34.984;32.490;2022-12-20T16:04:48;11.40;;;7.83;;
35074;SDS011;21260;34.984;32.490;2022-12-20T16:07:14;10.97;;;8.13;;
35074;SDS011;21260;34.984;32.490;2022-12-20T16:09:42;10.00;;;8.00;;
35074;SDS011;21260;34.984;32.490;2022-12-20T16:12:12;11.20;;;8.17;;
35074;SDS011;21260;34.984;32.490;2022-12-20T16:14:42;10.87;;;9.10;;
35074;SDS011;21260;34.984;32.490;2022-12-20T16:17:12;12.13;;;8.90;;
35074;SDS011;21260;34.984;32.490;2022-12-20T16:19:40;11.83;;;9.97;;
35074;SDS011;21260;34.984;32.490;2022-12-20T16:22:15;12.97;;;9.97;;
35074;SDS011;21260;34.984;32.490;2022-12-20T16:27:13;13.17;;;9.67;;
35074;SDS011;21260;34.984;32.490;2022-12-20T16:29:40;11.83;;;9.10;;
35074;SDS011;21260;34.984;32.490;2022-12-20T16:32:11;12.90;;;9.53;;
35074;SDS011;21260;34.984;32.490;2022-12-20T16:34:49;17.73;;;9.93;;
35074;SDS011;21260;34.984;32.490;2022-12-20T16:37:16;14.80;;;9.87;;
35074;SDS011;21260;34.984;32.490;2022-12-20T16:39:43;15.23;;;10.17;;
35074;SDS011;21260;34.984;32.490;2022-12-20T16:42:15;14.60;;;9.60;;
35074;SDS011;21260;34.984;32.490;2022-12-20T16:44:49;15.37;;;10.13;;
35074;SDS011;21260;34.984;32.490;2022-12-20T16:47:17;13.30;;;10.43;;
35074;SDS011;21260;34.984;32.490;2022-12-20T16:49:45;12.50;;;9.70;;
35074;SDS011;21260;34.984;32.490;2022-12-20T16:52:15;13.60;;;9.77;;
35074;SDS011;21260;34.984;32.490;2022-12-20T16:54:45;14.47;;;10.60;;
35074;SDS011;21260;34.984;32.490;2022-12-20T16:57:11;13.90;;;9.97;;
35074;SDS011;21260;34.984;32.490;2022-12-20T16:59:37;13.97;;;10.20;;
35074;SDS011;21260;34.984;32.490;2022-12-20T17:02:04;14.43;;;10.23;;
35074;SDS011;21260;34.984;32.490;2022-12-20T17:04:49;14.43;;;11.07;;
35074;SDS011;21260;34.984;32.490;2022-12-20T17:07:18;14.13;;;10.60;;
35074;SDS011;21260;34.984;32.490;2022-12-20T17:09:44;14.63;;;10.13;;
35074;SDS011;21260;34.984;32.490;2022-12-20T17:12:17;13.67;;;10.37;;
35074;SDS011;21260;34.984;32.490;2022-12-20T17:14:46;13.90;;;10.20;;
35074;SDS011;21260;34.984;32.490;2022-12-20T17:17:13;14.10;;;10.63;;
35074;SDS011;21260;34.984;32.490;2022-12-20T17:19:40;14.87;;;10.70;;